sensor_id;sensor_type;location;lat;lon;timestamp;pressure;altitude;pressure_sealevel;temperature;humidity
70521;BME280;58442;52.716;23.560;2023-03-19T00:01:36;101790.73;;;5.15;68.06
70521;BME280;58442;52.716;23.560;2023-03-19T00:03:46;101792.88;;;5.13;68.14
70521;BME280;58442;52.716;23.560;2023-03-19T00:05:51;101789.38;;;5.12;68.20
70521;BME280;58442;52.716;23.560;2023-03-19T00:07:53;101790.20;;;5.13;68.25
70521;BME280;58442;52.716;23.560;2023-03-19T00:09:54;101792.88;;;5.13;68.22
70521;BME280;58442;52.716;23.560;2023-03-19T00:12:01;101791.79;;;5.14;68.24
70521;BME280;58442;52.716;23.560;2023-03-19T00:14:04;101786.40;;;5.14;68.25
70521;BME280;58442;52.716;23.560;2023-03-19T00:16:07;101783.71;;;5.14;68.18
70521;BME280;58442;52.716;23.560;2023-03-19T00:18:08;101782.11;;;5.13;68.18
70521;BME280;58442;52.716;23.560;2023-03-19T00:20:16;101789.68;;;5.11;68.21
70521;BME280;58442;52.716;23.560;2023-03-19T00:22:19;101784.84;;;5.08;68.30
70521;BME280;58442;52.716;23.560;2023-03-19T00:24:21;101781.63;;;5.06;68.37
70521;BME280;58442;52.716;23.560;2023-03-19T00:26:22;101787.02;;;5.06;68.32
70521;BME280;58442;52.716;23.560;2023-03-19T00:28:31;101779.23;;;5.04;68.36
70521;BME280;58442;52.716;23.560;2023-03-19T00:30:33;101776.83;;;5.03;68.49
70521;BME280;58442;52.716;23.560;2023-03-19T00:32:35;101776.03;;;5.02;68.52
70521;BME280;58442;52.716;23.560;2023-03-19T00:34:36;101773.59;;;5.01;68.54
70521;BME280;58442;52.716;23.560;2023-03-19T00:36:46;101773.59;;;5.01;68.61
70521;BME280;58442;52.716;23.560;2023-03-19T00:38:47;101773.09;;;4.99;68.69
70521;BME280;58442;52.716;23.560;2023-03-19T00:40:49;101771.48;;;4.98;68.76
70521;BME280;58442;52.716;23.560;2023-03-19T00:42:50;101770.68;;;4.97;68.76
70521;BME280;58442;52.716;23.560;2023-03-19T00:45:01;101770.97;;;4.96;68.76
70521;BME280;58442;52.716;23.560;2023-03-19T00:47:03;101769.59;;;4.98;68.80
70521;BME280;58442;52.716;23.560;2023-03-19T00:49:06;101766.38;;;4.96;68.82
70521;BME280;58442;52.716;23.560;2023-03-19T00:51:09;101766.09;;;4.98;68.80
70521;BME280;58442;52.716;23.560;2023-03-19T00:53:16;101765.00;;;4.99;68.78
70521;BME280;58442;52.716;23.560;2023-03-19T00:55:18;101761.50;;;4.98;68.80
70521;BME280;58442;52.716;23.560;2023-03-19T00:57:19;101765.80;;;4.99;68.80
70521;BME280;58442;52.716;23.560;2023-03-19T00:59:21;101759.11;;;4.97;68.98
70521;BME280;58442;52.716;23.560;2023-03-19T01:01:31;101765.30;;;4.97;68.80
70521;BME280;58442;52.716;23.560;2023-03-19T01:03:33;101758.59;;;4.94;68.87
70521;BME280;58442;52.716;23.560;2023-03-19T01:05:35;101755.36;;;4.92;68.88
70521;BME280;58442;52.716;23.560;2023-03-19T01:07:37;101755.36;;;4.92;68.90
70521;BME280;58442;52.716;23.560;2023-03-19T01:09:46;101751.35;;;4.90;68.98
70521;BME280;58442;52.716;23.560;2023-03-19T01:11:47;101756.23;;;4.88;69.08
70521;BME280;58442;52.716;23.560;2023-03-19T01:13:48;101756.23;;;4.88;69.13
70521;BME280;58442;52.716;23.560;2023-03-19T01:15:51;101758.63;;;4.89;69.14
70521;BME280;58442;52.716;23.560;2023-03-19T01:18:01;101754.05;;;4.90;69.13
70521;BME280;58442;52.716;23.560;2023-03-19T01:20:04;101757.54;;;4.90;69.16
70521;BME280;58442;52.716;23.560;2023-03-19T01:22:12;101754.34;;;4.88;69.23
70521;BME280;58442;52.716;23.560;2023-03-19T01:24:17;101758.12;;;4.87;69.23
70521;BME280;58442;52.716;23.560;2023-03-19T01:26:18;101756.23;;;4.88;69.26
70521;BME280;58442;52.716;23.560;2023-03-19T01:28:19;101754.84;;;4.90;69.33
70521;BME280;58442;52.716;23.560;2023-03-19T01:30:22;101754.84;;;4.90;69.35
70521;BME280;58442;52.716;23.560;2023-03-19T01:32:23;101750.55;;;4.89;69.39
70521;BME280;58442;52.716;23.560;2023-03-19T01:34:32;101757.54;;;4.90;69.39
70521;BME280;58442;52.716;23.560;2023-03-19T01:36:36;101751.86;;;4.92;69.44
70521;BME280;58442;52.716;23.560;2023-03-19T01:38:38;101765.33;;;4.92;69.44
70521;BME280;58442;52.716;23.560;2023-03-19T01:40:44;101760.45;;;4.94;69.36
70521;BME280;58442;52.716;23.560;2023-03-19T01:42:56;101758.59;;;4.94;69.31
70521;BME280;58442;52.716;23.560;2023-03-19T01:47:33;101754.27;;;4.93;69.39
70521;BME280;58442;52.716;23.560;2023-03-19T01:49:36;101752.38;;;4.94;69.47
70521;BME280;58442;52.716;23.560;2023-03-19T01:51:42;101753.20;;;4.94;69.48
70521;BME280;58442;52.716;23.560;2023-03-19T01:53:52;101745.92;;;4.95;69.49
70521;BME280;58442;52.716;23.560;2023-03-19T01:55:58;101750.23;;;4.96;69.49
70521;BME280;58442;52.716;23.560;2023-03-19T01:58:06;101760.70;;;4.98;69.50
70521;BME280;58442;52.716;23.560;2023-03-19T02:00:09;101756.63;;;5.00;69.49
70521;BME280;58442;52.716;23.560;2023-03-19T02:02:21;101747.48;;;5.01;69.44
70521;BME280;58442;52.716;23.560;2023-03-19T02:04:26;101750.44;;;5.00;69.49
70521;BME280;58442;52.716;23.560;2023-03-19T02:06:28;101757.43;;;5.01;69.49
70521;BME280;58442;52.716;23.560;2023-03-19T02:08:31;101752.04;;;5.01;69.52
70521;BME280;58442;52.716;23.560;2023-03-19T02:10:34;101750.44;;;5.00;69.52
70521;BME280;58442;52.716;23.560;2023-03-19T02:12:36;101756.92;;;4.99;69.54
70521;BME280;58442;52.716;23.560;2023-03-19T02:14:38;101758.01;;;4.98;69.56
70521;BME280;58442;52.716;23.560;2023-03-19T02:16:39;101757.21;;;4.97;69.63
70521;BME280;58442;52.716;23.560;2023-03-19T02:18:41;101760.70;;;4.98;69.61
70521;BME280;58442;52.716;23.560;2023-03-19T02:20:49;101759.91;;;4.97;69.59
70521;BME280;58442;52.716;23.560;2023-03-19T02:25:20;101759.40;;;4.95;69.65
70521;BME280;58442;52.716;23.560;2023-03-19T02:27:24;101766.68;;;4.94;69.72
70521;BME280;58442;52.716;23.560;2023-03-19T02:29:26;101763.98;;;4.94;69.73
70521;BME280;58442;52.716;23.560;2023-03-19T02:31:27;101764.79;;;4.95;69.70
70521;BME280;58442;52.716;23.560;2023-03-19T02:33:30;101754.81;;;4.96;69.71
70521;BME280;58442;52.716;23.560;2023-03-19T02:35:32;101763.98;;;4.94;69.79
70521;BME280;58442;52.716;23.560;2023-03-19T02:37:35;101756.16;;;4.93;69.79
70521;BME280;58442;52.716;23.560;2023-03-19T02:39:47;101760.75;;;4.92;69.81
70521;BME280;58442;52.716;23.560;2023-03-19T02:41:51;101760.75;;;4.92;69.80
70521;BME280;58442;52.716;23.560;2023-03-19T02:43:54;101762.34;;;4.93;69.82
70521;BME280;58442;52.716;23.560;2023-03-19T02:45:56;101766.42;;;4.91;69.81
70521;BME280;58442;52.716;23.560;2023-03-19T02:47:58;101762.42;;;4.88;69.82
70521;BME280;58442;52.716;23.560;2023-03-19T02:50:00;101767.27;;;4.86;69.89
70521;BME280;58442;52.716;23.560;2023-03-19T02:52:02;101756.27;;;4.83;69.98
70521;BME280;58442;52.716;23.560;2023-03-19T02:54:03;101758.16;;;4.82;70.01
70521;BME280;58442;52.716;23.560;2023-03-19T02:56:06;101756.82;;;4.80;70.00
70521;BME280;58442;52.716;23.560;2023-03-19T02:58:16;101754.42;;;4.78;70.07
70521;BME280;58442;52.716;23.560;2023-03-19T03:00:17;101755.50;;;4.77;70.08
70521;BME280;58442;52.716;23.560;2023-03-19T03:02:20;101753.61;;;4.78;70.03
70521;BME280;58442;52.716;23.560;2023-03-19T03:04:22;101752.01;;;4.77;70.08
70521;BME280;58442;52.716;23.560;2023-03-19T03:06:32;101757.69;;;4.75;70.13
70521;BME280;58442;52.716;23.560;2023-03-19T03:08:33;101752.81;;;4.77;70.13
70521;BME280;58442;52.716;23.560;2023-03-19T03:10:36;101754.42;;;4.78;70.06
70521;BME280;58442;52.716;23.560;2023-03-19T03:12:38;101753.61;;;4.78;70.02
70521;BME280;58442;52.716;23.560;2023-03-19T03:14:47;101760.09;;;4.77;70.05
70521;BME280;58442;52.716;23.560;2023-03-19T03:16:49;101758.77;;;4.74;70.12
70521;BME280;58442;52.716;23.560;2023-03-19T03:18:50;101752.59;;;4.74;70.13
70521;BME280;58442;52.716;23.560;2023-03-19T03:20:52;101747.75;;;4.71;70.12
70521;BME280;58442;52.716;23.560;2023-03-19T03:23:02;101746.95;;;4.70;70.16
70521;BME280;58442;52.716;23.560;2023-03-19T03:25:04;101754.52;;;4.68;70.19
70521;BME280;58442;52.716;23.560;2023-03-19T03:27:06;101752.09;;;4.66;70.16
70521;BME280;58442;52.716;23.560;2023-03-19T03:29:08;101746.48;;;4.63;70.20
70521;BME280;58442;52.716;23.560;2023-03-19T03:31:17;101748.66;;;4.61;70.25
70521;BME280;58442;52.716;23.560;2023-03-19T03:33:19;101747.05;;;4.60;70.27
70521;BME280;58442;52.716;23.560;2023-03-19T03:35:21;101751.35;;;4.61;70.24
70521;BME280;58442;52.716;23.560;2023-03-19T03:37:22;101764.01;;;4.60;70.17
70521;BME280;58442;52.716;23.560;2023-03-19T03:39:33;101755.39;;;4.58;70.16
70521;BME280;58442;52.716;23.560;2023-03-19T03:41:35;101752.98;;;4.57;70.18
70521;BME280;58442;52.716;23.560;2023-03-19T03:43:36;101755.16;;;4.55;70.18
70521;BME280;58442;52.716;23.560;2023-03-19T03:45:37;101747.40;;;4.48;70.19
70521;BME280;58442;52.716;23.560;2023-03-19T03:47:49;101745.04;;;4.42;70.31
70521;BME280;58442;52.716;23.560;2023-03-19T03:49:51;101747.75;;;4.36;70.42
70521;BME280;58442;52.716;23.560;2023-03-19T03:51:52;101745.35;;;4.35;70.47
70521;BME280;58442;52.716;23.560;2023-03-19T03:53:53;101745.89;;;4.32;70.41
70521;BME280;58442;52.716;23.560;2023-03-19T03:56:05;101753.22;;;4.26;70.44
70521;BME280;58442;52.716;23.560;2023-03-19T03:58:06;101738.71;;;4.22;70.53
70521;BME280;58442;52.716;23.560;2023-03-19T04:00:08;101742.23;;;4.18;70.52
70521;BME280;58442;52.716;23.560;2023-03-19T04:02:12;101736.33;;;4.16;70.53
70521;BME280;58442;52.716;23.560;2023-03-19T04:04:19;101735.02;;;4.13;70.38
70521;BME280;58442;52.716;23.560;2023-03-19T04:06:22;101736.63;;;4.09;70.53
70521;BME280;58442;52.716;23.560;2023-03-19T04:08:25;101733.97;;;4.04;70.62
70521;BME280;58442;52.716;23.560;2023-03-19T04:10:26;101740.46;;;3.98;70.67
70521;BME280;58442;52.716;23.560;2023-03-19T04:12:35;101739.14;;;3.95;70.71
70521;BME280;58442;52.716;23.560;2023-03-19T04:14:38;101738.11;;;3.91;70.71
70521;BME280;58442;52.716;23.560;2023-03-19T04:16:39;101741.34;;;3.88;70.69
70521;BME280;58442;52.716;23.560;2023-03-19T04:18:43;101738.15;;;3.81;70.74
70521;BME280;58442;52.716;23.560;2023-03-19T04:20:50;101733.59;;;3.76;70.81
70521;BME280;58442;52.716;23.560;2023-03-19T04:22:52;101735.24;;;3.72;70.89
70521;BME280;58442;52.716;23.560;2023-03-19T04:24:53;101734.97;;;3.69;70.88
70521;BME280;58442;52.716;23.560;2023-03-19T04:26:55;101736.34;;;3.66;70.88
70521;BME280;58442;52.716;23.560;2023-03-19T04:29:04;101736.07;;;3.63;70.92
70521;BME280;58442;52.716;23.560;2023-03-19T04:31:06;101745.50;;;3.60;70.98
70521;BME280;58442;52.716;23.560;2023-03-19T04:33:09;101738.26;;;3.55;71.01
70521;BME280;58442;52.716;23.560;2023-03-19T04:35:11;101740.98;;;3.50;71.10
70521;BME280;58442;52.716;23.560;2023-03-19T04:37:19;101740.72;;;3.47;71.15
70521;BME280;58442;52.716;23.560;2023-03-19T04:39:21;101736.15;;;3.42;71.20
70521;BME280;58442;52.716;23.560;2023-03-19T04:41:24;101741.81;;;3.41;71.24
70521;BME280;58442;52.716;23.560;2023-03-19T04:43:26;101742.09;;;3.39;71.25
70521;BME280;58442;52.716;23.560;2023-03-19T04:45:34;101742.37;;;3.38;71.26
70521;BME280;58442;52.716;23.560;2023-03-19T04:47:36;101745.30;;;3.36;71.30
70521;BME280;58442;52.716;23.560;2023-03-19T04:49:37;101736.73;;;3.34;71.32
70521;BME280;58442;52.716;23.560;2023-03-19T04:51:39;101745.86;;;3.33;71.34
70521;BME280;58442;52.716;23.560;2023-03-19T04:53:49;101741.05;;;3.30;71.43
70521;BME280;58442;52.716;23.560;2023-03-19T04:55:50;101746.67;;;3.28;71.47
70521;BME280;58442;52.716;23.560;2023-03-19T04:57:52;101739.70;;;3.27;71.47
70521;BME280;58442;52.716;23.560;2023-03-19T04:59:53;101746.15;;;3.26;71.46
70521;BME280;58442;52.716;23.560;2023-03-19T05:02:05;101744.02;;;3.23;71.46
70521;BME280;58442;52.716;23.560;2023-03-19T05:04:07;101750.45;;;3.22;71.51
70521;BME280;58442;52.716;23.560;2023-03-19T05:06:08;101748.84;;;3.21;71.54
70521;BME280;58442;52.716;23.560;2023-03-19T05:08:10;101744.27;;;3.22;71.48
70521;BME280;58442;52.716;23.560;2023-03-19T05:10:20;101747.24;;;3.20;71.44
70521;BME280;58442;52.716;23.560;2023-03-19T05:12:21;101748.88;;;3.16;71.51
70521;BME280;58442;52.716;23.560;2023-03-19T05:14:22;101741.06;;;3.15;71.61
70521;BME280;58442;52.716;23.560;2023-03-19T05:16:24;101750.48;;;3.12;71.71
70521;BME280;58442;52.716;23.560;2023-03-19T05:18:35;101748.88;;;3.11;71.83
70521;BME280;58442;52.716;23.560;2023-03-19T05:20:37;101748.88;;;3.11;71.85
70521;BME280;58442;52.716;23.560;2023-03-19T05:22:39;101753.45;;;3.11;71.87
70521;BME280;58442;52.716;23.560;2023-03-19T05:24:41;101752.65;;;3.10;71.86
70521;BME280;58442;52.716;23.560;2023-03-19T05:26:49;101751.56;;;3.11;71.87
70521;BME280;58442;52.716;23.560;2023-03-19T05:28:51;101738.15;;;3.11;71.85
70521;BME280;58442;52.716;23.560;2023-03-19T05:30:52;101734.38;;;3.12;71.88
70521;BME280;58442;52.716;23.560;2023-03-19T05:32:55;101738.94;;;3.12;71.85
70521;BME280;58442;52.716;23.560;2023-03-19T05:35:06;101734.65;;;3.11;71.92
70521;BME280;58442;52.716;23.560;2023-03-19T05:37:07;101736.54;;;3.10;71.97
70521;BME280;58442;52.716;23.560;2023-03-19T05:39:09;101726.87;;;3.09;72.01
70521;BME280;58442;52.716;23.560;2023-03-19T05:41:10;101747.27;;;3.10;72.09
70521;BME280;58442;52.716;23.560;2023-03-19T05:43:20;101740.54;;;3.13;72.16
70521;BME280;58442;52.716;23.560;2023-03-19T05:45:22;101741.35;;;3.13;72.23
70521;BME280;58442;52.716;23.560;2023-03-19T05:47:23;101739.19;;;3.15;72.27
70521;BME280;58442;52.716;23.560;2023-03-19T05:49:25;101740.54;;;3.18;72.26
70521;BME280;58442;52.716;23.560;2023-03-19T05:51:35;101751.27;;;3.23;72.28
70521;BME280;58442;52.716;23.560;2023-03-19T05:53:37;101741.86;;;3.25;72.29
70521;BME280;58442;52.716;23.560;2023-03-19T05:55:39;101742.38;;;3.27;72.28
70521;BME280;58442;52.716;23.560;2023-03-19T05:57:40;101743.19;;;3.28;72.30
70521;BME280;58442;52.716;23.560;2023-03-19T05:59:50;101741.85;;;3.31;72.38
70521;BME280;58442;52.716;23.560;2023-03-19T06:01:52;101745.86;;;3.33;72.46
70521;BME280;58442;52.716;23.560;2023-03-19T06:03:53;101742.09;;;3.34;72.45
70521;BME280;58442;52.716;23.560;2023-03-19T06:05:55;101735.12;;;3.38;72.46
70521;BME280;58442;52.716;23.560;2023-03-19T06:08:05;101738.03;;;3.42;72.45
70521;BME280;58442;52.716;23.560;2023-03-19T06:10:08;101734.82;;;3.45;72.49
70521;BME280;58442;52.716;23.560;2023-03-19T06:12:09;101749.30;;;3.49;72.51
70521;BME280;58442;52.716;23.560;2023-03-19T06:14:11;101750.38;;;3.53;72.49
70521;BME280;58442;52.716;23.560;2023-03-19T06:16:21;101747.67;;;3.58;72.48
70521;BME280;58442;52.716;23.560;2023-03-19T06:18:23;101757.85;;;3.61;72.49
70521;BME280;58442;52.716;23.560;2023-03-19T06:20:24;101752.47;;;3.66;72.55
70521;BME280;58442;52.716;23.560;2023-03-19T06:22:26;101748.13;;;3.70;72.51
70521;BME280;58442;52.716;23.560;2023-03-19T06:24:36;101751.33;;;3.77;72.49
70521;BME280;58442;52.716;23.560;2023-03-19T06:26:38;101759.09;;;3.84;72.51
70521;BME280;58442;52.716;23.560;2023-03-19T06:28:39;101752.89;;;3.89;72.46
70521;BME280;58442;52.716;23.560;2023-03-19T06:30:41;101750.70;;;3.96;72.44
70521;BME280;58442;52.716;23.560;2023-03-19T06:32:51;101744.21;;;4.02;72.39
70521;BME280;58442;52.716;23.560;2023-03-19T06:34:53;101749.58;;;4.07;72.38
70521;BME280;58442;52.716;23.560;2023-03-19T06:36:56;101753.04;;;4.13;72.31
70521;BME280;58442;52.716;23.560;2023-03-19T06:38:57;101746.00;;;4.17;72.30
70521;BME280;58442;52.716;23.560;2023-03-19T06:41:06;101747.07;;;4.21;72.29
70521;BME280;58442;52.716;23.560;2023-03-19T06:43:08;101749.73;;;4.26;72.30
70521;BME280;58442;52.716;23.560;2023-03-19T06:45:10;101748.87;;;4.30;72.25
70521;BME280;58442;52.716;23.560;2023-03-19T06:47:12;101749.13;;;4.34;72.20
70521;BME280;58442;52.716;23.560;2023-03-19T06:49:22;101743.69;;;4.39;72.14
70521;BME280;58442;52.716;23.560;2023-03-19T06:51:23;101749.04;;;4.44;72.15
70521;BME280;58442;52.716;23.560;2023-03-19T06:53:27;101747.69;;;4.47;72.14
70521;BME280;58442;52.716;23.560;2023-03-19T06:55:29;101755.99;;;4.50;72.11
70521;BME280;58442;52.716;23.560;2023-03-19T06:57:37;101751.93;;;4.53;72.10
70521;BME280;58442;52.716;23.560;2023-03-19T06:59:38;101765.35;;;4.58;72.11
70521;BME280;58442;52.716;23.560;2023-03-19T07:01:40;101765.02;;;4.64;72.04
70521;BME280;58442;52.716;23.560;2023-03-19T07:03:42;101758.80;;;4.69;71.95
70521;BME280;58442;52.716;23.560;2023-03-19T07:05:52;101764.97;;;4.75;71.90
70521;BME280;58442;52.716;23.560;2023-03-19T07:07:53;101764.63;;;4.81;71.85
70521;BME280;58442;52.716;23.560;2023-03-19T07:09:55;101768.06;;;4.87;71.76
70521;BME280;58442;52.716;23.560;2023-03-19T07:11:56;101771.52;;;4.92;71.71
70521;BME280;58442;52.716;23.560;2023-03-19T07:14:07;101771.48;;;4.98;71.66
70521;BME280;58442;52.716;23.560;2023-03-19T07:16:08;101777.13;;;5.01;71.62
70521;BME280;58442;52.716;23.560;2023-03-19T07:18:09;101780.84;;;5.05;71.56
70521;BME280;58442;52.716;23.560;2023-03-19T07:20:13;101781.30;;;5.12;71.50
70521;BME280;58442;52.716;23.560;2023-03-19T07:22:22;101778.28;;;5.19;71.46
70521;BME280;58442;52.716;23.560;2023-03-19T07:24:23;101776.63;;;5.23;71.40
70521;BME280;58442;52.716;23.560;2023-03-19T07:26:25;101787.88;;;5.30;71.33
70521;BME280;58442;52.716;23.560;2023-03-19T07:28:27;101783.75;;;5.38;71.25
70521;BME280;58442;52.716;23.560;2023-03-19T07:30:37;101788.80;;;5.44;71.15
70521;BME280;58442;52.716;23.560;2023-03-19T07:32:38;101796.25;;;5.53;71.10
70521;BME280;58442;52.716;23.560;2023-03-19T07:34:40;101787.02;;;5.59;71.03
70521;BME280;58442;52.716;23.560;2023-03-19T07:36:42;101785.87;;;5.65;70.93
70521;BME280;58442;52.716;23.560;2023-03-19T07:38:52;101790.92;;;5.71;70.88
70521;BME280;58442;52.716;23.560;2023-03-19T07:40:53;101783.27;;;5.79;70.79
70521;BME280;58442;52.716;23.560;2023-03-19T07:42:54;101789.92;;;5.86;70.68
70521;BME280;58442;52.716;23.560;2023-03-19T07:44:56;101786.60;;;5.94;70.55
70521;BME280;58442;52.716;23.560;2023-03-19T07:47:07;101784.35;;;6.01;70.44
70521;BME280;58442;52.716;23.560;2023-03-19T07:49:08;101785.89;;;6.08;70.36
70521;BME280;58442;52.716;23.560;2023-03-19T07:51:10;101783.06;;;6.18;70.27
70521;BME280;58442;52.716;23.560;2023-03-19T07:53:12;101779.10;;;6.29;70.12
70521;BME280;58442;52.716;23.560;2023-03-19T07:55:22;101783.77;;;6.42;69.90
70521;BME280;58442;52.716;23.560;2023-03-19T07:57:23;101771.73;;;6.53;69.70
70521;BME280;58442;52.716;23.560;2023-03-19T07:59:25;101773.15;;;6.65;69.47
70521;BME280;58442;52.716;23.560;2023-03-19T08:01:27;101771.39;;;6.74;69.33
70521;BME280;58442;52.716;23.560;2023-03-19T08:03:36;101765.50;;;6.85;69.15
70521;BME280;58442;52.716;23.560;2023-03-19T08:05:39;101764.85;;;6.94;68.99
70521;BME280;58442;52.716;23.560;2023-03-19T08:07:41;101761.95;;;7.04;68.81
70521;BME280;58442;52.716;23.560;2023-03-19T08:09:42;101762.36;;;7.11;68.64
70521;BME280;58442;52.716;23.560;2023-03-19T08:11:51;101767.88;;;7.20;68.49
70521;BME280;58442;52.716;23.560;2023-03-19T08:13:53;101760.17;;;7.27;68.33
70521;BME280;58442;52.716;23.560;2023-03-19T08:15:54;101754.09;;;7.35;68.14
70521;BME280;58442;52.716;23.560;2023-03-19T08:18:00;101756.09;;;7.43;67.97
70521;BME280;58442;52.716;23.560;2023-03-19T08:20:12;101754.27;;;7.52;67.78
70521;BME280;58442;52.716;23.560;2023-03-19T08:22:15;101746.24;;;7.61;67.58
70521;BME280;58442;52.716;23.560;2023-03-19T08:24:17;101741.43;;;7.72;67.38
70521;BME280;58442;52.716;23.560;2023-03-19T08:26:19;101740.61;;;7.85;67.17
70521;BME280;58442;52.716;23.560;2023-03-19T08:28:22;101731.34;;;8.00;66.87
70521;BME280;58442;52.716;23.560;2023-03-19T08:30:23;101738.00;;;8.16;66.52
70521;BME280;58442;52.716;23.560;2023-03-19T08:32:25;101734.65;;;8.33;66.22
70521;BME280;58442;52.716;23.560;2023-03-19T08:34:27;101737.49;;;8.50;65.92
70521;BME280;58442;52.716;23.560;2023-03-19T08:36:36;101736.51;;;8.68;65.58
70521;BME280;58442;52.716;23.560;2023-03-19T08:38:38;101731.81;;;8.83;65.27
70521;BME280;58442;52.716;23.560;2023-03-19T08:40:40;101732.72;;;9.00;64.86
70521;BME280;58442;52.716;23.560;2023-03-19T08:42:42;101723.52;;;9.19;64.55
70521;BME280;58442;52.716;23.560;2023-03-19T08:44:51;101728.70;;;9.38;64.19
70521;BME280;58442;52.716;23.560;2023-03-19T08:46:53;101721.09;;;9.57;63.79
70521;BME280;58442;52.716;23.560;2023-03-19T08:48:54;101727.98;;;9.72;63.50
70521;BME280;58442;52.716;23.560;2023-03-19T08:50:58;101733.41;;;9.80;63.30
70521;BME280;58442;52.716;23.560;2023-03-19T08:53:06;101736.79;;;9.95;63.02
70521;BME280;58442;52.716;23.560;2023-03-19T08:55:08;101734.75;;;10.09;62.71
70521;BME280;58442;52.716;23.560;2023-03-19T08:57:10;101729.98;;;10.23;62.27
70521;BME280;58442;52.716;23.560;2023-03-19T08:59:11;101733.63;;;10.36;61.98
70521;BME280;58442;52.716;23.560;2023-03-19T09:01:21;101719.57;;;10.51;61.69
70521;BME280;58442;52.716;23.560;2023-03-19T09:03:24;101728.66;;;10.64;61.37
70521;BME280;58442;52.716;23.560;2023-03-19T09:05:25;101729.90;;;10.75;61.01
70521;BME280;58442;52.716;23.560;2023-03-19T09:07:27;101728.90;;;10.88;60.75
70521;BME280;58442;52.716;23.560;2023-03-19T09:09:36;101731.74;;;11.01;60.43
70521;BME280;58442;52.716;23.560;2023-03-19T09:11:37;101717.77;;;11.11;60.02
70521;BME280;58442;52.716;23.560;2023-03-19T09:13:39;101727.97;;;11.22;59.72
70521;BME280;58442;52.716;23.560;2023-03-19T09:15:40;101717.99;;;11.35;59.54
70521;BME280;58442;52.716;23.560;2023-03-19T09:17:51;101726.72;;;11.49;59.21
70521;BME280;58442;52.716;23.560;2023-03-19T09:19:52;101722.50;;;11.61;58.72
70521;BME280;58442;52.716;23.560;2023-03-19T09:21:54;101723.70;;;11.72;58.37
70521;BME280;58442;52.716;23.560;2023-03-19T09:23:55;101716.31;;;11.81;58.15
70521;BME280;58442;52.716;23.560;2023-03-19T09:26:06;101710.12;;;11.93;57.94
70521;BME280;58442;52.716;23.560;2023-03-19T09:28:07;101718.82;;;12.07;57.60
70521;BME280;58442;52.716;23.560;2023-03-19T09:30:09;101711.84;;;12.18;57.31
70521;BME280;58442;52.716;23.560;2023-03-19T09:32:11;101710.96;;;12.26;56.88
70521;BME280;58442;52.716;23.560;2023-03-19T09:34:21;101716.66;;;12.33;56.67
70521;BME280;58442;52.716;23.560;2023-03-19T09:36:22;101716.22;;;12.31;56.41
70521;BME280;58442;52.716;23.560;2023-03-19T09:38:23;101717.01;;;12.32;56.13
70521;BME280;58442;52.716;23.560;2023-03-19T09:40:35;101705.11;;;12.37;56.07
70521;BME280;58442;52.716;23.560;2023-03-19T09:44:58;101705.26;;;12.52;55.51
70521;BME280;58442;52.716;23.560;2023-03-19T09:47:12;101706.90;;;12.66;55.13
70521;BME280;58442;52.716;23.560;2023-03-19T09:51:38;101701.94;;;12.92;54.42
70521;BME280;58442;52.716;23.560;2023-03-19T09:55:57;101687.52;;;13.04;54.03
70521;BME280;58442;52.716;23.560;2023-03-19T10:00:31;101684.02;;;13.28;53.48
70521;BME280;58442;52.716;23.560;2023-03-19T10:02:42;101687.54;;;13.40;52.97
70521;BME280;58442;52.716;23.560;2023-03-19T10:16:00;101687.11;;;13.79;50.97
70521;BME280;58442;52.716;23.560;2023-03-19T10:18:17;101686.52;;;13.85;50.63
70521;BME280;58442;52.716;23.560;2023-03-19T10:24:45;101675.07;;;13.80;49.99
70521;BME280;58442;52.716;23.560;2023-03-19T10:26:47;101685.87;;;13.76;49.81
70521;BME280;58442;52.716;23.560;2023-03-19T10:29:07;101681.12;;;13.73;49.83
70521;BME280;58442;52.716;23.560;2023-03-19T10:31:36;101680.32;;;13.73;49.70
70521;BME280;58442;52.716;23.560;2023-03-19T10:33:52;101690.64;;;13.79;49.50
70521;BME280;58442;52.716;23.560;2023-03-19T10:36:08;101670.05;;;13.82;49.40
70521;BME280;58442;52.716;23.560;2023-03-19T10:40:35;101674.13;;;13.88;49.13
70521;BME280;58442;52.716;23.560;2023-03-19T10:45:04;101671.84;;;13.90;48.61
70521;BME280;58442;52.716;23.560;2023-03-19T10:47:13;101660.81;;;13.86;48.67
70521;BME280;58442;52.716;23.560;2023-03-19T10:49:15;101663.31;;;13.79;48.83
70521;BME280;58442;52.716;23.560;2023-03-19T10:51:25;101661.29;;;13.76;48.53
70521;BME280;58442;52.716;23.560;2023-03-19T10:53:36;101664.38;;;13.75;48.58
70521;BME280;58442;52.716;23.560;2023-03-19T10:56:02;101664.61;;;13.69;48.55
70521;BME280;58442;52.716;23.560;2023-03-19T10:58:00;101661.88;;;13.69;48.45
70521;BME280;58442;52.716;23.560;2023-03-19T11:02:22;101661.29;;;13.76;48.41
70521;BME280;58442;52.716;23.560;2023-03-19T11:04:35;101660.26;;;13.81;48.27
70521;BME280;58442;52.716;23.560;2023-03-19T11:06:37;101658.76;;;13.83;48.10
70521;BME280;58442;52.716;23.560;2023-03-19T11:08:39;101650.69;;;13.87;47.99
70521;BME280;58442;52.716;23.560;2023-03-19T11:10:46;101648.83;;;13.91;47.85
70521;BME280;58442;52.716;23.560;2023-03-19T11:12:54;101646.52;;;13.93;47.75
70521;BME280;58442;52.716;23.560;2023-03-19T11:14:58;101650.88;;;13.94;47.62
70521;BME280;58442;52.716;23.560;2023-03-19T11:19:19;101656.55;;;14.01;47.33
70521;BME280;58442;52.716;23.560;2023-03-19T11:21:26;101647.64;;;14.04;47.24
70521;BME280;58442;52.716;23.560;2023-03-19T11:23:30;101659.01;;;14.06;47.19
70521;BME280;58442;52.716;23.560;2023-03-19T11:25:37;101655.16;;;14.07;47.12
70521;BME280;58442;52.716;23.560;2023-03-19T11:27:41;101656.03;;;14.11;47.04